KHYR/HYR METAR and TAF weather

Enter ICAO airport designator
Station Type Date Time Source
KHYR METAR 2021/05/14 12:53 UTC NOAA

KHYR 141253Z AUTO 00000KT 10SM BKN110 10/04 A3024 RMK AO2 SLP245 T01000044


Station Type Date Time Source
KHYR Decoded METAR 2021/05/14 12:53 UTC NOAA

HAYWARD MUNICIPAL AIRPORT, WI, United States (KHYR) 46-01N 91-27W 370M
May 14, 2021 - 08:53 AM EDT / 2021.05.14 1253 UTC
Wind: Calm:0
Visibility: 10 mile(s):0
Sky conditions: mostly cloudy
Temperature: 50.0 F (10.0 C)
Dew Point: 39.9 F (4.4 C)
Relative Humidity: 68%
Pressure (altimeter): 30.24 in. Hg (1024 hPa)
ob: KHYR 141253Z AUTO 00000KT 10SM BKN110 10/04 A3024 RMK AO2 SLP245 T01000044
cycle: 13

Station Type Date Time Source
KHYR TAF 2021/05/14 12:54 UTC NOAA

KHYR 141150Z 1412/1512 VRB03KT P6SM SCT100
FM141900 20009KT P6SM SCT060 BKN090
FM150500 VRB03KT P6SM VCSH BKN040
FM150800 16005KT P6SM VCSH BKN025

Example: see airport list